Time;durP1;ratioP1;P1;durP2;ratioP2;P2;SDS_P1;SDS_P2;PMS_P1;PMS_P2;Temp;Humidity;BMP_temperature;BMP_pressure;BME280_temperature;BME280_humidity;BME280_pressure;Samples;Min_cycle;Max_cycle;Signal;HPM_P1;HPM_P2
2023/09/21 00:00:34;;;;;;;;;;;;;;;17.98;65.80;97178.41;5030202;28;20476;-62
2023/09/21 00:03:02;;;;;;;;;;;;;;;17.96;65.72;97174.44;5010906;28;19976;-62
2023/09/21 00:05:31;;;;;;;;;;;;;;;17.93;65.95;97175.19;5028453;28;19959;-63
2023/09/21 00:07:59;;;;;;;;;;;;;;;17.91;66.10;97172.03;5029435;28;19925;-64
2023/09/21 00:10:31;;;;;;;;;;;;;;;17.87;66.01;97165.72;5029476;28;19929;-63
2023/09/21 00:13:00;;;;;;;;;;;;;;;17.88;66.27;97164.53;5027997;28;20013;-63
2023/09/21 00:15:29;;;;;;;;;;;;;;;17.88;66.09;97159.06;5024832;28;19932;-63
2023/09/21 00:17:57;;;;;;;;;;;;;;;17.87;66.17;97168.47;5015355;28;19929;-63
2023/09/21 00:20:28;;;;;;;;;;;;;;;17.87;66.15;97160.22;5028479;28;19929;-62
2023/09/21 00:22:56;;;;;;;;;;;;;;;17.85;66.18;97157.06;5027177;28;19943;-63
2023/09/21 00:25:23;;;;;;;;;;;;;;;17.83;66.42;97164.88;5027102;28;19979;-63
2023/09/21 00:27:51;;;;;;;;;;;;;;;17.85;66.21;97157.84;5028414;28;19983;-62
2023/09/21 00:30:19;;;;;;;;;;;;;;;17.84;66.31;97150.75;5027305;28;19936;-63
2023/09/21 00:32:48;;;;;;;;;;;;;;;17.84;66.40;97149.97;5009979;28;20378;-62
2023/09/21 00:35:16;;;;;;;;;;;;;;;17.79;66.36;97143.69;5028593;28;19929;-62
2023/09/21 00:37:45;;;;;;;;;;;;;;;17.80;66.36;97145.25;5008596;28;20028;-63
2023/09/21 00:40:21;;;;;;;;;;;;;;;17.78;66.47;97139.31;5027431;28;19929;-62
2023/09/21 00:42:51;;;;;;;;;;;;;;;17.78;66.53;97135.78;5004177;28;19932;-62
2023/09/21 00:45:20;;;;;;;;;;;;;;;17.74;66.47;97135.78;5008425;28;20032;-63
2023/09/21 00:47:50;;;;;;;;;;;;;;;17.76;66.41;97132.63;5009842;28;19927;-63
2023/09/21 00:50:19;;;;;;;;;;;;;;;17.74;66.43;97124.00;5010523;28;19932;-62
2023/09/21 00:52:48;;;;;;;;;;;;;;;17.72;66.44;97129.84;5026829;28;19929;-63
2023/09/21 00:55:17;;;;;;;;;;;;;;;17.69;66.49;97122.34;5025611;28;19936;-63
2023/09/21 00:57:45;;;;;;;;;;;;;;;17.67;66.40;97118.38;5004525;28;19929;-63
2023/09/21 01:00:16;;;;;;;;;;;;;;;17.68;66.46;97120.75;5024757;28;20374;-62
2023/09/21 01:02:47;;;;;;;;;;;;;;;17.64;66.36;97111.69;5028109;28;20327;-62
2023/09/21 01:05:17;;;;;;;;;;;;;;;17.62;66.37;97111.25;5028200;28;20614;-62
2023/09/21 01:07:45;;;;;;;;;;;;;;;17.58;66.45;97113.22;5010378;28;19951;-63
2023/09/21 01:10:13;;;;;;;;;;;;;;;17.54;66.67;97118.66;5027903;28;19987;-63
2023/09/21 01:12:44;;;;;;;;;;;;;;;17.56;66.69;97104.53;5007516;28;19932;-63
2023/09/21 01:15:13;;;;;;;;;;;;;;;17.56;66.68;97107.28;5023892;28;19925;-63
2023/09/21 01:17:42;;;;;;;;;;;;;;;17.53;66.46;97108.06;5025783;28;19925;-62
2023/09/21 01:20:22;;;;;;;;;;;;;;;17.46;66.50;97095.00;5008514;28;19965;-63
2023/09/21 01:22:54;;;;;;;;;;;;;;;17.43;66.36;97098.53;5027965;28;19929;-63
2023/09/21 01:25:23;;;;;;;;;;;;;;;17.44;66.41;97097.34;5027122;28;20102;-63
2023/09/21 01:27:52;;;;;;;;;;;;;;;17.43;66.27;97092.25;5009173;28;19932;-62
2023/09/21 01:30:19;;;;;;;;;;;;;;;17.43;66.41;97082.06;5026760;28;19944;-62
2023/09/21 01:32:48;;;;;;;;;;;;;;;17.43;66.27;97084.81;5023250;28;19936;-62
2023/09/21 01:35:17;;;;;;;;;;;;;;;17.41;66.29;97083.59;5027146;28;19933;-62
2023/09/21 01:37:46;;;;;;;;;;;;;;;17.40;66.31;97085.53;5027348;28;19932;-62
2023/09/21 01:40:16;;;;;;;;;;;;;;;17.36;66.48;97079.22;5008948;28;19933;-63
2023/09/21 01:42:48;;;;;;;;;;;;;;;17.32;66.48;97077.63;5026926;28;19929;-63
2023/09/21 01:45:19;;;;;;;;;;;;;;;17.35;66.44;97074.88;5024536;28;19936;-62
2023/09/21 01:47:49;;;;;;;;;;;;;;;17.33;66.62;97070.97;5026938;28;19929;-63
2023/09/21 01:50:21;;;;;;;;;;;;;;;17.29;66.69;97074.44;5017094;28;19933;-62
2023/09/21 01:52:50;;;;;;;;;;;;;;;17.32;66.55;97074.88;5009206;28;19945;-62
2023/09/21 01:55:18;;;;;;;;;;;;;;;17.27;66.75;97070.50;5026843;28;19929;-62
2023/09/21 01:57:47;;;;;;;;;;;;;;;17.23;66.64;97075.94;5009002;28;19969;-62
2023/09/21 02:00:26;;;;;;;;;;;;;;;17.24;66.54;97074.00;5008726;28;19926;-63
2023/09/21 02:02:55;;;;;;;;;;;;;;;17.21;66.63;97072.81;5027166;28;19925;-62
2023/09/21 02:05:24;;;;;;;;;;;;;;;17.18;66.52;97059.03;5026517;28;19975;-63
2023/09/21 02:07:55;;;;;;;;;;;;;;;17.06;67.07;97064.78;5008146;28;19925;-65
2023/09/21 02:10:23;;;;;;;;;;;;;;;17.00;67.28;97065.09;5021326;28;20026;-63
2023/09/21 02:12:53;;;;;;;;;;;;;;;16.97;67.36;97071.31;5009182;28;19976;-62
2023/09/21 02:15:21;;;;;;;;;;;;;;;16.97;67.25;97070.53;5025393;28;19929;-62
2023/09/21 02:17:51;;;;;;;;;;;;;;;16.97;67.11;97062.31;5006444;28;21387;-62
2023/09/21 02:20:20;;;;;;;;;;;;;;;17.00;67.00;97069.81;5025378;28;19925;-62
2023/09/21 02:22:48;;;;;;;;;;;;;;;16.96;67.28;97064.25;5004316;28;19925;-63
2023/09/21 02:25:16;;;;;;;;;;;;;;;16.94;67.24;97063.06;5006923;28;19939;-63
2023/09/21 02:27:45;;;;;;;;;;;;;;;16.93;67.13;97061.47;5006547;28;19929;-63
2023/09/21 02:30:16;;;;;;;;;;;;;;;16.93;67.29;97055.97;5037684;28;19983;-62
2023/09/21 02:32:45;;;;;;;;;;;;;;;16.93;67.66;97058.72;5030482;28;19929;-64
2023/09/21 02:35:15;;;;;;;;;;;;;;;16.94;67.47;97057.59;5030400;28;19925;-63
2023/09/21 02:37:46;;;;;;;;;;;;;;;16.93;67.58;97053.22;5024249;28;20013;-63
2023/09/21 02:40:15;;;;;;;;;;;;;;;16.93;67.58;97048.53;5029297;28;19925;-63
2023/09/21 02:42:43;;;;;;;;;;;;;;;16.90;67.63;97043.03;5029954;28;19959;-63
2023/09/21 02:45:12;;;;;;;;;;;;;;;16.82;67.70;97042.13;5012569;28;19986;-64
2023/09/21 02:47:42;;;;;;;;;;;;;;;16.80;68.10;97046.44;5030769;28;19948;-63
2023/09/21 02:50:15;;;;;;;;;;;;;;;16.80;68.06;97036.25;5031726;28;19929;-63
2023/09/21 02:52:44;;;;;;;;;;;;;;;16.80;68.00;97036.25;5012174;28;20394;-68
2023/09/21 02:55:12;;;;;;;;;;;;;;;16.81;67.90;97037.03;5007925;28;19929;-62
2023/09/21 02:57:41;;;;;;;;;;;;;;;16.83;67.87;97038.25;5010749;28;20418;-63
2023/09/21 03:00:21;;;;;;;;;;;;;;;16.85;67.92;97029.63;5011678;28;20019;-64
2023/09/21 03:02:50;;;;;;;;;;;;;;;16.84;67.84;97033.56;5013442;28;19925;-62
2023/09/21 03:05:18;;;;;;;;;;;;;;;16.79;68.06;97029.19;5028723;28;19925;-62
2023/09/21 03:07:47;;;;;;;;;;;;;;;16.78;68.12;97030.34;5029312;28;19991;-63
2023/09/21 03:10:16;;;;;;;;;;;;;;;16.74;68.27;97032.25;5023933;28;19926;-62
2023/09/21 03:12:47;;;;;;;;;;;;;;;16.73;68.41;97033.41;5011835;28;20353;-63
2023/09/21 03:15:22;;;;;;;;;;;;;;;16.72;68.54;97034.56;5020553;28;19929;-62
2023/09/21 03:17:53;;;;;;;;;;;;;;;16.71;68.66;97028.28;5027934;28;20444;-63
2023/09/21 03:20:32;;;;;;;;;;;;;;;16.76;68.36;97027.97;5028068;28;19964;-62
2023/09/21 03:23:04;;;;;;;;;;;;;;;16.77;68.31;97021.31;5009997;28;19929;-62
2023/09/21 03:25:33;;;;;;;;;;;;;;;16.77;68.39;97023.25;5010392;28;19929;-63
2023/09/21 03:28:02;;;;;;;;;;;;;;;16.71;68.26;97025.53;5029512;28;20441;-62
2023/09/21 03:30:31;;;;;;;;;;;;;;;16.65;68.36;97021.53;5025587;28;19968;-63
2023/09/21 03:33:00;;;;;;;;;;;;;;;16.64;68.46;97014.47;5012001;28;19925;-62
2023/09/21 03:35:28;;;;;;;;;;;;;;;16.63;68.71;97012.88;5011213;28;19940;-62
2023/09/21 03:38:00;;;;;;;;;;;;;;;16.64;68.58;97014.47;5028973;28;19932;-62
2023/09/21 03:40:30;;;;;;;;;;;;;;;16.61;68.56;97009.72;5009236;28;20014;-62
2023/09/21 03:42:59;;;;;;;;;;;;;;;16.67;68.25;97013.72;5029400;28;19941;-62
2023/09/21 03:45:27;;;;;;;;;;;;;;;16.64;68.46;96997.22;5011282;28;19935;-63
2023/09/21 03:47:55;;;;;;;;;;;;;;;16.66;68.28;97008.59;5029144;28;20357;-62
2023/09/21 03:50:27;;;;;;;;;;;;;;;16.65;68.32;97001.53;5010573;28;19929;-63
2023/09/21 03:52:55;;;;;;;;;;;;;;;16.64;68.48;96998.00;5010774;28;19925;-62
2023/09/21 03:55:23;;;;;;;;;;;;;;;16.52;68.57;96987.28;5027872;28;19955;-62
2023/09/21 03:57:51;;;;;;;;;;;;;;;16.49;68.84;97005.25;5027660;28;19932;-62
2023/09/21 04:00:29;;;;;;;;;;;;;;;16.37;69.11;96999.22;5007759;28;19936;-62
2023/09/21 04:02:59;;;;;;;;;;;;;;;16.34;69.28;96999.97;5008183;28;19926;-62
2023/09/21 04:05:31;;;;;;;;;;;;;;;16.37;69.09;96989.06;5011229;28;19954;-62
2023/09/21 04:08:00;;;;;;;;;;;;;;;16.38;69.07;96987.09;5027235;28;19925;-62
2023/09/21 04:10:28;;;;;;;;;;;;;;;16.37;69.08;96983.56;5028714;28;20341;-63
2023/09/21 04:12:56;;;;;;;;;;;;;;;16.40;68.81;96982.81;5022647;28;19925;-62
2023/09/21 04:15:24;;;;;;;;;;;;;;;16.39;68.75;96980.44;5025188;28;20361;-62
2023/09/21 04:17:52;;;;;;;;;;;;;;;16.38;68.78;96979.66;5011261;28;19925;-63
2023/09/21 04:20:21;;;;;;;;;;;;;;;16.38;68.71;96973.38;5009916;28;20653;-62
2023/09/21 04:22:55;;;;;;;;;;;;;;;16.37;68.42;96969.06;5011646;28;19957;-62
2023/09/21 04:25:22;;;;;;;;;;;;;;;16.39;68.41;96972.22;5007325;28;19930;-62
2023/09/21 04:27:53;;;;;;;;;;;;;;;16.32;68.48;96966.66;5008321;28;19929;-62
2023/09/21 04:30:21;;;;;;;;;;;;;;;16.33;68.66;96965.50;5023921;28;19983;-63
2023/09/21 04:32:50;;;;;;;;;;;;;;;16.32;68.95;96961.19;4997161;28;19929;-62
2023/09/21 04:35:19;;;;;;;;;;;;;;;16.29;68.96;96959.16;5003204;28;19925;-62
2023/09/21 04:37:48;;;;;;;;;;;;;;;16.28;69.10;96960.34;5011594;28;19929;-63
2023/09/21 04:40:17;;;;;;;;;;;;;;;16.26;69.28;96957.97;5009328;28;20694;-62
2023/09/21 04:42:46;;;;;;;;;;;;;;;16.22;69.55;96962.59;5008134;28;19990;-63
2023/09/21 04:45:21;;;;;;;;;;;;;;;16.26;69.24;96955.22;4998427;28;20024;-63
2023/09/21 04:47:58;;;;;;;;;;;;;;;16.30;69.45;96952.50;5011011;28;19933;-63
2023/09/21 04:50:26;;;;;;;;;;;;;;;16.31;69.60;96943.16;5003568;28;20375;-62
2023/09/21 04:52:54;;;;;;;;;;;;;;;16.30;69.63;96947.03;5011699;28;20020;-63
2023/09/21 04:55:23;;;;;;;;;;;;;;;16.31;69.63;96943.94;4997868;28;19979;-62
2023/09/21 04:57:52;;;;;;;;;;;;;;;16.31;69.60;96940.41;5002960;28;19983;-63
2023/09/21 05:00:20;;;;;;;;;;;;;;;16.36;69.74;96953.78;5001753;28;19940;-63
2023/09/21 05:02:48;;;;;;;;;;;;;;;16.36;69.95;96948.31;5009970;28;19933;-62
2023/09/21 05:05:19;;;;;;;;;;;;;;;16.32;69.90;96950.22;5000220;28;20015;-62
2023/09/21 05:07:46;;;;;;;;;;;;;;;16.33;69.72;96949.03;5028586;28;19929;-63
2023/09/21 05:10:14;;;;;;;;;;;;;;;16.35;69.63;96949.44;5008260;28;20353;-63
2023/09/21 05:12:43;;;;;;;;;;;;;;;16.34;69.62;96951.41;5025077;28;20594;-63
2023/09/21 05:15:14;;;;;;;;;;;;;;;16.38;69.51;96945.97;5026447;28;19942;-63
2023/09/21 05:17:42;;;;;;;;;;;;;;;16.41;69.34;96950.72;5023204;28;20297;-63
2023/09/21 05:20:11;;;;;;;;;;;;;;;16.40;69.39;96951.88;5019038;28;19929;-63
2023/09/21 05:22:40;;;;;;;;;;;;;;;16.41;69.35;96950.72;5026082;28;19925;-62
2023/09/21 05:25:07;;;;;;;;;;;;;;;16.39;69.55;96942.06;5025761;28;19982;-63
2023/09/21 05:27:36;;;;;;;;;;;;;;;16.43;69.35;96948.38;5027971;28;19932;-63
2023/09/21 05:30:05;;;;;;;;;;;;;;;16.44;69.32;96939.78;5028638;28;19936;-63
2023/09/21 05:32:34;;;;;;;;;;;;;;;16.43;69.26;96934.69;5019848;28;20018;-62
2023/09/21 05:35:05;;;;;;;;;;;;;;;16.44;69.23;96934.31;5027059;28;19952;-62
2023/09/21 05:37:34;;;;;;;;;;;;;;;16.46;69.38;96937.47;5024638;28;19929;-62
2023/09/21 05:40:05;;;;;;;;;;;;;;;16.46;69.30;96936.69;5028566;28;19937;-62
2023/09/21 05:42:33;;;;;;;;;;;;;;;16.45;69.38;96938.63;5024236;28;19925;-62
2023/09/21 05:45:01;;;;;;;;;;;;;;;16.45;69.51;96943.31;5028570;28;19933;-62
2023/09/21 05:47:30;;;;;;;;;;;;;;;16.49;69.61;96938.66;5025106;28;19933;-63
2023/09/21 05:49:58;;;;;;;;;;;;;;;16.47;69.48;96938.28;5005540;28;19929;-62
2023/09/21 05:52:25;;;;;;;;;;;;;;;16.50;69.43;96934.75;5019598;28;19929;-62
2023/09/21 05:54:53;;;;;;;;;;;;;;;16.52;69.23;96935.19;5026618;28;19929;-62
2023/09/21 05:57:22;;;;;;;;;;;;;;;16.52;69.25;96934.41;5020262;28;19933;-63
2023/09/21 05:59:53;;;;;;;;;;;;;;;16.47;69.07;96935.53;5021182;28;19925;-62
2023/09/21 06:02:21;;;;;;;;;;;;;;;16.47;69.05;96935.53;5024295;28;19932;-62
2023/09/21 06:04:50;;;;;;;;;;;;;;;16.44;68.93;96933.53;5025570;28;19929;-62
2023/09/21 06:07:18;;;;;;;;;;;;;;;16.44;68.96;96928.03;5022229;28;20440;-62
2023/09/21 06:09:45;;;;;;;;;;;;;;;16.41;69.12;96928.78;5027117;28;19963;-63
2023/09/21 06:12:13;;;;;;;;;;;;;;;16.45;68.94;96930.41;5022475;28;20295;-63
2023/09/21 06:14:42;;;;;;;;;;;;;;;16.52;68.96;96931.66;5022406;28;19932;-63
2023/09/21 06:17:13;;;;;;;;;;;;;;;16.52;68.93;96932.44;5020978;28;20593;-63
2023/09/21 06:19:41;;;;;;;;;;;;;;;16.56;68.84;96937.97;5021050;28;20507;-63
2023/09/21 06:22:12;;;;;;;;;;;;;;;16.57;68.83;96932.13;5026795;28;20457;-63
2023/09/21 06:24:42;;;;;;;;;;;;;;;16.61;68.74;96921.97;5023087;28;19929;-63
2023/09/21 06:27:10;;;;;;;;;;;;;;;16.62;68.70;96923.56;5027292;28;19929;-63
2023/09/21 06:29:37;;;;;;;;;;;;;;;16.68;68.76;96932.25;5027643;28;19948;-63
2023/09/21 06:32:07;;;;;;;;;;;;;;;16.72;68.62;96931.16;5025010;28;19998;-63
2023/09/21 06:34:41;;;;;;;;;;;;;;;16.77;68.63;96930.78;5026531;28;19940;-63
2023/09/21 06:37:11;;;;;;;;;;;;;;;16.79;68.63;96930.44;5025111;28;20386;-63
2023/09/21 06:39:39;;;;;;;;;;;;;;;16.82;68.67;96917.91;5026407;28;20462;-63
2023/09/21 06:42:07;;;;;;;;;;;;;;;16.86;68.76;96919.53;5007303;28;19925;-63
2023/09/21 06:44:35;;;;;;;;;;;;;;;16.90;68.71;96914.09;5027349;28;19929;-63
2023/09/21 06:47:03;;;;;;;;;;;;;;;16.95;68.52;96920.03;5027065;28;19935;-63
2023/09/21 06:49:31;;;;;;;;;;;;;;;16.99;68.47;96920.03;5025869;28;19972;-63
2023/09/21 06:51:59;;;;;;;;;;;;;;;17.03;68.62;96918.13;5026657;28;19925;-63
2023/09/21 06:54:30;;;;;;;;;;;;;;;17.07;68.73;96916.22;5026880;28;19928;-62
2023/09/21 06:57:03;;;;;;;;;;;;;;;17.08;68.81;96906.81;5027250;28;19933;-62
2023/09/21 06:59:34;;;;;;;;;;;;;;;17.10;69.07;96907.22;5025595;28;19940;-63
2023/09/21 07:02:03;;;;;;;;;;;;;;;17.13;69.06;96900.97;5026314;28;19925;-61
2023/09/21 07:04:33;;;;;;;;;;;;;;;17.19;69.23;96913.16;5026484;28;20814;-63
2023/09/21 07:07:04;;;;;;;;;;;;;;;17.25;68.96;96906.16;5026079;28;19926;-63
2023/09/21 07:09:35;;;;;;;;;;;;;;;17.27;69.23;96903.84;5026147;28;19925;-63
2023/09/21 07:12:03;;;;;;;;;;;;;;;17.30;69.51;96907.78;5022505;28;19933;-63
2023/09/21 07:14:32;;;;;;;;;;;;;;;17.35;69.48;96903.91;5016306;28;19933;-63
2023/09/21 07:17:00;;;;;;;;;;;;;;;17.40;69.63;96906.28;5013455;28;20040;-63
2023/09/21 07:19:28;;;;;;;;;;;;;;;17.43;69.75;96908.28;5008731;28;19968;-63
2023/09/21 07:21:56;;;;;;;;;;;;;;;17.43;70.03;96906.31;5024504;28;19929;-63
2023/09/21 07:24:24;;;;;;;;;;;;;;;17.43;70.20;96900.84;5032596;28;19949;-65
2023/09/21 07:26:54;;;;;;;;;;;;;;;17.50;70.14;96902.84;5016577;28;19975;-64
2023/09/21 07:29:23;;;;;;;;;;;;;;;17.54;70.53;96907.19;5020692;28;19983;-63
2023/09/21 07:31:51;;;;;;;;;;;;;;;17.57;70.72;96897.38;5025828;28;19935;-63
2023/09/21 07:34:19;;;;;;;;;;;;;;;17.65;70.76;96901.78;5031550;28;19971;-62
2023/09/21 07:36:47;;;;;;;;;;;;;;;17.69;70.92;96894.34;5030788;28;19925;-63
2023/09/21 07:39:16;;;;;;;;;;;;;;;17.75;70.93;96895.59;5028699;28;20330;-65
2023/09/21 07:41:46;;;;;;;;;;;;;;;17.80;70.98;96889.75;5023061;28;19925;-63
2023/09/21 07:44:16;;;;;;;;;;;;;;;17.90;70.96;96888.22;5030778;28;19929;-62
2023/09/21 07:46:45;;;;;;;;;;;;;;;17.97;71.03;96888.25;5027193;28;20538;-64
2023/09/21 07:49:13;;;;;;;;;;;;;;;18.02;70.94;96887.13;5029470;28;19940;-63
2023/09/21 07:51:41;;;;;;;;;;;;;;;18.08;71.05;96885.56;5031771;28;20515;-63
2023/09/21 07:54:09;;;;;;;;;;;;;;;18.12;71.00;96880.88;5035168;28;20555;-63
2023/09/21 07:56:37;;;;;;;;;;;;;;;18.17;71.24;96876.97;5034626;28;19936;-66
2023/09/21 07:59:09;;;;;;;;;;;;;;;18.23;71.11;96876.22;5035313;28;20302;-64
2023/09/21 08:01:40;;;;;;;;;;;;;;;18.28;70.99;96877.81;5022525;28;19939;-62
2023/09/21 08:04:08;;;;;;;;;;;;;;;18.34;71.02;96868.00;5032551;28;19929;-63
2023/09/21 08:06:35;;;;;;;;;;;;;;;18.39;70.95;96877.84;5030214;28;20480;-62
2023/09/21 08:09:03;;;;;;;;;;;;;;;18.42;70.91;96871.56;5031247;28;19932;-62
2023/09/21 08:11:37;;;;;;;;;;;;;;;18.43;70.60;96873.13;5028197;28;19940;-62
2023/09/21 08:14:05;;;;;;;;;;;;;;;18.46;70.67;96872.38;5028755;28;19925;-62
2023/09/21 08:16:35;;;;;;;;;;;;;;;18.50;70.75;96864.91;5030531;28;19933;-62
2023/09/21 08:19:06;;;;;;;;;;;;;;;18.52;70.92;96873.56;5029400;28;20393;-62
2023/09/21 08:21:34;;;;;;;;;;;;;;;18.55;71.03;96864.53;5029375;28;20494;-62
2023/09/21 08:24:02;;;;;;;;;;;;;;;18.55;71.22;96867.28;5030135;28;19925;-62
2023/09/21 08:26:32;;;;;;;;;;;;;;;18.56;71.38;96869.66;5021563;28;20260;-62
2023/09/21 08:28:59;;;;;;;;;;;;;;;18.60;71.45;96861.41;5029774;28;19936;-62
2023/09/21 08:31:27;;;;;;;;;;;;;;;18.65;71.43;96861.03;5019100;28;19925;-62
2023/09/21 08:33:55;;;;;;;;;;;;;;;18.72;71.40;96866.56;5024150;28;19929;-62
2023/09/21 08:36:24;;;;;;;;;;;;;;;18.81;71.39;96869.75;5017363;28;19925;-62
2023/09/21 08:38:53;;;;;;;;;;;;;;;18.92;71.49;96867.00;5028914;28;19929;-62
2023/09/21 08:41:21;;;;;;;;;;;;;;;19.00;71.23;96867.78;5029160;28;20028;-62
2023/09/21 08:43:49;;;;;;;;;;;;;;;19.04;70.94;96868.59;5028575;28;20374;-62
2023/09/21 08:46:17;;;;;;;;;;;;;;;19.10;70.84;96861.50;5022325;28;19933;-62
2023/09/21 08:48:47;;;;;;;;;;;;;;;19.19;70.64;96853.66;5010103;28;19926;-62
2023/09/21 08:51:18;;;;;;;;;;;;;;;19.25;70.56;96857.56;5012015;28;20298;-62
2023/09/21 08:53:51;;;;;;;;;;;;;;;19.29;70.88;96852.88;5021277;28;19936;-62
2023/09/21 08:56:21;;;;;;;;;;;;;;;19.34;70.51;96852.47;5008612;28;19978;-62
2023/09/21 08:58:50;;;;;;;;;;;;;;;19.41;69.82;96842.63;5024848;28;19925;-62
2023/09/21 09:01:17;;;;;;;;;;;;;;;19.48;69.37;96842.59;5028981;28;19961;-62
2023/09/21 09:03:46;;;;;;;;;;;;;;;19.53;69.24;96833.94;5029553;28;19925;-62
2023/09/21 09:06:15;;;;;;;;;;;;;;;19.57;68.50;96831.97;5029007;28;19925;-62
2023/09/21 09:08:44;;;;;;;;;;;;;;;19.63;68.36;96830.41;5028776;28;20287;-62
2023/09/21 09:11:27;;;;;;;;;;;;;;;19.63;67.91;96825.69;5028260;28;19929;-63
2023/09/21 09:13:56;;;;;;;;;;;;;;;19.66;67.14;96826.88;5026678;28;19987;-63
2023/09/21 09:16:27;;;;;;;;;;;;;;;19.73;68.91;96820.56;5028899;28;19925;-62
2023/09/21 09:18:57;;;;;;;;;;;;;;;19.79;69.55;96819.75;5029189;28;19926;-63
2023/09/21 09:21:25;;;;;;;;;;;;;;;19.83;69.02;96820.53;5028473;28;19929;-62
2023/09/21 09:23:52;;;;;;;;;;;;;;;19.87;68.80;96815.78;5027304;28;19933;-62
2023/09/21 09:26:20;;;;;;;;;;;;;;;19.95;68.72;96813.00;5025244;28;19925;-63
2023/09/21 09:28:48;;;;;;;;;;;;;;;20.00;68.26;96807.06;5028879;28;20298;-65
2023/09/21 09:31:18;;;;;;;;;;;;;;;20.07;68.08;96807.03;5027546;28;19932;-62
2023/09/21 09:33:49;;;;;;;;;;;;;;;20.12;68.35;96810.16;5028208;28;19994;-62
2023/09/21 09:36:21;;;;;;;;;;;;;;;20.18;66.43;96802.25;5028460;28;19937;-62
2023/09/21 09:38:49;;;;;;;;;;;;;;;20.21;66.65;96806.97;5025912;28;19964;-63
2023/09/21 09:41:18;;;;;;;;;;;;;;;20.24;65.70;96803.44;5027433;28;20363;-62
2023/09/21 09:43:45;;;;;;;;;;;;;;;20.29;66.20;96793.94;5024458;28;19988;-63
2023/09/21 09:46:14;;;;;;;;;;;;;;;20.33;65.64;96789.97;5028168;28;19925;-62
2023/09/21 09:48:43;;;;;;;;;;;;;;;20.36;64.56;96793.91;5022555;28;20020;-63
2023/09/21 09:51:11;;;;;;;;;;;;;;;20.38;65.54;96786.78;5026736;28;19968;-63
2023/09/21 09:53:40;;;;;;;;;;;;;;;20.47;65.83;96793.88;5006952;28;20383;-61
2023/09/21 09:56:10;;;;;;;;;;;;;;;20.50;65.33;96793.06;5025442;28;19937;-62
2023/09/21 09:58:40;;;;;;;;;;;;;;;20.56;64.97;96795.00;5027421;28;20024;-62
2023/09/21 10:01:09;;;;;;;;;;;;;;;20.57;63.38;96785.53;5027514;28;21183;-62
2023/09/21 10:03:38;;;;;;;;;;;;;;;20.57;63.17;96780.00;5025964;28;19929;-63
2023/09/21 10:06:08;;;;;;;;;;;;;;;20.63;65.29;96770.13;5021692;28;19948;-63
2023/09/21 10:08:38;;;;;;;;;;;;;;;20.66;64.47;96771.25;5024611;28;19929;-63
2023/09/21 10:11:07;;;;;;;;;;;;;;;20.70;63.84;96757.44;5024390;28;19966;-62
2023/09/21 10:13:35;;;;;;;;;;;;;;;20.72;63.43;96755.88;5018617;28;19929;-63
2023/09/21 10:16:04;;;;;;;;;;;;;;;20.72;63.46;96761.38;5009747;28;19929;-63
2023/09/21 10:18:35;;;;;;;;;;;;;;;20.80;63.86;96759.34;5017110;28;19929;-62
2023/09/21 10:21:16;;;;;;;;;;;;;;;20.85;63.03;96750.63;5025869;28;19936;-63
2023/09/21 10:24:00;;;;;;;;;;;;;;;20.87;62.65;96753.75;5026683;28;19929;-62
2023/09/21 10:26:28;;;;;;;;;;;;;;;20.92;63.79;96745.03;5026867;28;20695;-63
2023/09/21 10:28:56;;;;;;;;;;;;;;;20.97;62.53;96735.53;5034262;28;19925;-62
2023/09/21 10:31:24;;;;;;;;;;;;;;;20.99;63.19;96736.72;5027034;28;19932;-62
2023/09/21 10:34:08;;;;;;;;;;;;;;;21.06;61.30;96727.56;5021441;28;19925;-62
2023/09/21 10:36:40;;;;;;;;;;;;;;;21.10;61.20;96728.34;5027256;28;19933;-62
2023/09/21 10:39:24;;;;;;;;;;;;;;;21.15;61.73;96722.38;5023477;28;20374;-63
2023/09/21 10:41:56;;;;;;;;;;;;;;;21.19;62.00;96720.31;5019219;28;20380;-63
2023/09/21 10:44:42;;;;;;;;;;;;;;;21.18;61.15;96721.53;5007778;28;19936;-61
2023/09/21 10:47:10;;;;;;;;;;;;;;;21.23;60.80;96721.09;5008643;28;19958;-61
2023/09/21 10:49:38;;;;;;;;;;;;;;;21.24;60.97;96714.34;5015683;28;19925;-61
2023/09/21 10:52:07;;;;;;;;;;;;;;;21.27;60.33;96713.56;5030346;28;19929;-61
2023/09/21 10:54:35;;;;;;;;;;;;;;;21.24;60.21;96711.59;5030957;28;19935;-63
2023/09/21 10:57:04;;;;;;;;;;;;;;;21.28;61.23;96709.59;5029396;28;20401;-63
2023/09/21 10:59:31;;;;;;;;;;;;;;;21.32;61.94;96702.09;5029226;28;19929;-62
2023/09/21 11:02:01;;;;;;;;;;;;;;;21.39;61.10;96701.22;5030830;28;19925;-63
2023/09/21 11:04:29;;;;;;;;;;;;;;;21.37;60.22;96690.59;5016783;28;20311;-63
2023/09/21 11:06:57;;;;;;;;;;;;;;;21.38;60.89;96678.34;5010813;28;20342;-62
2023/09/21 11:09:26;;;;;;;;;;;;;;;21.49;61.73;96667.16;5015724;28;19929;-62
2023/09/21 11:11:53;;;;;;;;;;;;;;;21.54;60.96;96666.69;5016322;28;19941;-62
2023/09/21 11:14:23;;;;;;;;;;;;;;;21.57;61.44;96667.84;5020883;28;20552;-62
2023/09/21 11:16:52;;;;;;;;;;;;;;;21.64;60.45;96659.47;5013580;28;19926;-63
2023/09/21 11:19:20;;;;;;;;;;;;;;;21.68;59.65;96655.47;5025412;28;19926;-62
2023/09/21 11:21:47;;;;;;;;;;;;;;;21.71;59.97;96649.09;5022260;28;19929;-62
2023/09/21 11:24:16;;;;;;;;;;;;;;;21.70;59.04;96649.53;5021853;28;19956;-63
2023/09/21 11:26:54;;;;;;;;;;;;;;;21.74;60.46;96643.97;5025706;28;20641;-63
2023/09/21 11:29:22;;;;;;;;;;;;;;;21.75;59.21;96640.78;5031520;28;19929;-63
2023/09/21 11:31:51;;;;;;;;;;;;;;;21.78;59.51;96641.91;5029978;28;19935;-63
2023/09/21 11:34:19;;;;;;;;;;;;;;;21.77;60.24;96649.41;5017670;28;19933;-63
2023/09/21 11:36:47;;;;;;;;;;;;;;;21.82;60.52;96640.66;5031333;28;20378;-63
2023/09/21 11:39:14;;;;;;;;;;;;;;;21.87;60.16;96636.66;5030957;28;19939;-63
2023/09/21 11:41:42;;;;;;;;;;;;;;;21.91;60.44;96632.63;5030707;28;19925;-63
2023/09/21 11:44:12;;;;;;;;;;;;;;;21.93;60.17;96629.44;5027216;28;19960;-63
2023/09/21 11:46:41;;;;;;;;;;;;;;;21.92;59.69;96620.38;5013992;28;19929;-63
2023/09/21 11:49:10;;;;;;;;;;;;;;;21.96;59.09;96626.63;5026991;28;20367;-63
2023/09/21 11:51:38;;;;;;;;;;;;;;;21.96;59.24;96612.81;5013102;28;19932;-63
2023/09/21 11:54:06;;;;;;;;;;;;;;;21.98;59.42;96615.94;5029402;28;19936;-63
2023/09/21 11:56:35;;;;;;;;;;;;;;;22.02;60.18;96613.13;5017356;28;19928;-62
2023/09/21 11:59:06;;;;;;;;;;;;;;;22.08;59.71;96618.97;5030331;28;19924;-62
2023/09/21 12:01:36;;;;;;;;;;;;;;;22.09;59.43;96610.25;5030415;28;19960;-62
2023/09/21 12:04:08;;;;;;;;;;;;;;;22.12;59.36;96603.91;5017706;28;19936;-62
2023/09/21 12:06:36;;;;;;;;;;;;;;;22.08;58.92;96597.63;5016410;28;19925;-62
2023/09/21 12:09:07;;;;;;;;;;;;;;;22.09;57.70;96595.63;5028423;28;19937;-62
2023/09/21 12:11:36;;;;;;;;;;;;;;;22.12;59.03;96590.09;5026945;28;19928;-62
2023/09/21 12:14:08;;;;;;;;;;;;;;;22.12;58.16;96586.53;5020988;28;19925;-62
2023/09/21 12:16:38;;;;;;;;;;;;;;;22.13;58.62;96588.09;5030300;28;19929;-62
2023/09/21 12:19:08;;;;;;;;;;;;;;;22.11;58.07;96579.44;5030313;28;19936;-63
2023/09/21 12:21:36;;;;;;;;;;;;;;;22.16;58.65;96576.22;5029739;28;19933;-63
2023/09/21 12:24:07;;;;;;;;;;;;;;;22.21;59.08;96572.94;5017056;28;19929;-63
2023/09/21 12:26:36;;;;;;;;;;;;;;;22.28;60.22;96558.22;5027929;28;19933;-63
2023/09/21 12:29:04;;;;;;;;;;;;;;;22.24;58.32;96572.09;5026685;28;19925;-62
2023/09/21 12:31:32;;;;;;;;;;;;;;;22.26;57.73;96557.84;5021073;28;19925;-62
2023/09/21 12:34:19;;;;;;;;;;;;;;;22.25;56.33;96561.81;5024497;28;19930;-64
2023/09/21 12:36:49;;;;;;;;;;;;;;;22.30;57.30;96553.03;5010292;28;19941;-63
2023/09/21 12:39:18;;;;;;;;;;;;;;;22.45;56.88;96546.84;5010222;28;19930;-63
2023/09/21 12:41:46;;;;;;;;;;;;;;;22.51;56.29;96552.66;5010271;28;19929;-63
2023/09/21 12:44:14;;;;;;;;;;;;;;;22.53;55.54;96553.03;5024182;28;19925;-63
2023/09/21 12:46:42;;;;;;;;;;;;;;;22.55;56.20;96553.38;5026525;28;19929;-63
2023/09/21 12:49:10;;;;;;;;;;;;;;;22.58;56.66;96554.50;5027500;28;19932;-63
2023/09/21 12:51:40;;;;;;;;;;;;;;;22.63;56.77;96551.25;5029916;28;19933;-63
2023/09/21 12:54:07;;;;;;;;;;;;;;;22.67;56.09;96554.75;5028700;28;19925;-63
2023/09/21 12:56:36;;;;;;;;;;;;;;;22.74;56.49;96554.59;5029028;28;19932;-63
2023/09/21 12:59:04;;;;;;;;;;;;;;;22.83;57.41;96556.81;5028852;28;20486;-61